»·PEaware :: N716TH KSBA-KBUR

N716TH :: KSBA-KBUR

FLIGHT INFORMATION

Flight Status: Arrived
Operator: Privately registered:
United States
More flights under this callsign
Pilot: Danny R. (17997)
Aircraft: CESSNA 172 SKYHAWK
(C172)
More flights by this aircraft type
Origin: KSBA Santa Barbara Mun
United States
Destination: KBUR Bob Hope-Burbank
United States
More flights between these airports :: More routes between these airports
Route: +KSBA OHIGH FIR KBUR
File this flight plan on PilotEdge
Remarks:
Altitude:
(Current/Filed)
3,500ft
Speed:
(Current/Filed)
100kts
Departed: 22-Feb-18 09:52 AM
Arrived: 22-Feb-18 10:44 AM
Distance/Time
Traveled:
74nm/0:52
Distance/Time
To Go:
Arrived

Flight Plot

Page will automatically refresh every two minutes.

Flight plan parsing failed; only flown route is shown


Map Options




Map Legend


Flown Route
Filed Route
Departure Airport
Arrival Airport
Navaid (VOR, NDB)
Fix

Horizontal Profiles

Position Reports

Time Latitude Longitude Heading Altitude Ground
Speed
22-Feb-18 09:10 34.423027 -119.836176 344 17ft 0kts
22-Feb-18 09:11 34.423027 -119.836176 344 17ft 0kts
22-Feb-18 09:12 34.423027 -119.836176 344 17ft 0kts
22-Feb-18 09:13 34.423027 -119.836176 344 17ft 0kts
22-Feb-18 09:14 34.423027 -119.836176 344 17ft 0kts
22-Feb-18 09:15 34.423027 -119.836176 344 17ft 0kts
22-Feb-18 09:16 34.423027 -119.836176 344 17ft 0kts
22-Feb-18 09:17 34.423027 -119.836176 344 17ft 0kts
22-Feb-18 09:18 34.423027 -119.836176 344 17ft 0kts
22-Feb-18 09:19 34.423027 -119.836176 344 17ft 0kts
22-Feb-18 09:20 34.423027 -119.836176 344 17ft 0kts
22-Feb-18 09:21 34.423027 -119.836176 344 17ft 0kts
22-Feb-18 09:22 34.423027 -119.836176 344 17ft 0kts
22-Feb-18 09:23 34.423027 -119.836176 344 17ft 0kts
22-Feb-18 09:24 34.423027 -119.836176 344 17ft 0kts
22-Feb-18 09:25 34.423027 -119.836176 344 17ft 0kts
22-Feb-18 09:26 34.423027 -119.836176 344 17ft 0kts
22-Feb-18 09:27 34.423027 -119.836176 344 17ft 0kts
22-Feb-18 09:28 34.423027 -119.836176 344 17ft 0kts
22-Feb-18 09:29 34.423027 -119.836176 344 17ft 0kts
22-Feb-18 09:30 34.423027 -119.836176 344 17ft 0kts
22-Feb-18 09:31 34.423027 -119.836176 344 17ft 0kts
22-Feb-18 09:32 34.423027 -119.836176 344 17ft 0kts
22-Feb-18 09:33 34.423027 -119.836176 344 17ft 0kts
22-Feb-18 09:34 34.423027 -119.836176 344 17ft 0kts
22-Feb-18 09:35 34.423027 -119.836176 344 17ft 0kts
22-Feb-18 09:36 34.423027 -119.836176 344 17ft 0kts
22-Feb-18 09:37 34.423027 -119.836176 344 17ft 0kts
22-Feb-18 09:38 34.423027 -119.836176 344 17ft 0kts
22-Feb-18 09:39 34.423027 -119.836176 344 17ft 0kts
22-Feb-18 09:40 34.423027 -119.836176 344 17ft 0kts
22-Feb-18 09:41 34.423027 -119.836176 344 17ft 0kts
22-Feb-18 09:42 34.423027 -119.836176 344 17ft 0kts
22-Feb-18 09:43 34.423027 -119.836176 344 17ft 0kts
22-Feb-18 09:44 34.423027 -119.836176 344 17ft 0kts
22-Feb-18 09:45 34.423027 -119.836176 344 17ft 0kts
22-Feb-18 09:46 34.423027 -119.836176 344 17ft 0kts
22-Feb-18 09:47 34.423027 -119.836176 344 17ft 0kts
22-Feb-18 09:48 34.423027 -119.836176 344 17ft 0kts
22-Feb-18 09:49 34.423027 -119.836176 344 17ft 0kts
22-Feb-18 09:50 34.423027 -119.836176 344 17ft 0kts
22-Feb-18 09:51 34.423042 -119.836335 250 17ft 4kts
22-Feb-18 09:52 34.425255 -119.837886 346 17ft 15kts
22-Feb-18 09:53 34.429935 -119.839290 346 17ft 13kts
22-Feb-18 09:54 34.430362 -119.839104 295 17ft 0kts
22-Feb-18 09:55 34.430362 -119.839103 295 17ft 0kts
22-Feb-18 09:56 34.430362 -119.839103 295 17ft 0kts
22-Feb-18 09:57 34.430657 -119.839750 261 17ft 0kts
22-Feb-18 09:58 34.430646 -119.839825 260 17ft 2kts
22-Feb-18 09:59 34.419737 -119.837062 163 379ft 68kts
22-Feb-18 10:00 34.401165 -119.829786 162 1232ft 75kts
22-Feb-18 10:01 34.377792 -119.822204 163 1527ft 96kts
22-Feb-18 10:02 34.358443 -119.803948 106 1846ft 83kts
22-Feb-18 10:03 34.356684 -119.778048 73 2274ft 85kts
22-Feb-18 10:04 34.366794 -119.753983 57 2833ft 81kts
22-Feb-18 10:05 34.379859 -119.731249 51 3366ft 82kts
22-Feb-18 10:06 34.395402 -119.709566 45 3763ft 94kts
22-Feb-18 10:07 34.411596 -119.682745 74 3775ft 108kts
22-Feb-18 10:08 34.417132 -119.647201 84 3507ft 100kts
22-Feb-18 10:09 34.413414 -119.614929 103 3473ft 95kts
22-Feb-18 10:10 34.406006 -119.584077 103 3517ft 95kts
22-Feb-18 10:11 34.401613 -119.552076 93 3541ft 100kts
22-Feb-18 10:12 34.401168 -119.517741 92 3602ft 100kts
22-Feb-18 10:13 34.401643 -119.484626 92 3642ft 98kts
22-Feb-18 10:14 34.402148 -119.451338 92 3670ft 101kts
22-Feb-18 10:15 34.402639 -119.417284 92 3657ft 100kts
22-Feb-18 10:16 34.402742 -119.383813 91 3655ft 99kts
22-Feb-18 10:17 34.400951 -119.352596 92 3658ft 99kts
22-Feb-18 10:18 34.397782 -119.321650 96 3699ft 96kts
22-Feb-18 10:19 34.394828 -119.289207 96 3678ft 98kts
22-Feb-18 10:20 34.391816 -119.256238 96 3654ft 99kts
22-Feb-18 10:21 34.388782 -119.222929 96 3625ft 99kts
22-Feb-18 10:22 34.385688 -119.189407 94 3593ft 102kts
22-Feb-18 10:23 34.382513 -119.154976 94 3564ft 103kts
22-Feb-18 10:24 34.379345 -119.120699 94 3517ft 102kts
22-Feb-18 10:25 34.376182 -119.086614 94 3464ft 101kts
22-Feb-18 10:26 34.373028 -119.052620 94 3405ft 101kts
22-Feb-18 10:27 34.369854 -119.018655 94 3363ft 100kts
22-Feb-18 10:28 34.366765 -118.985594 94 3372ft 98kts
22-Feb-18 10:29 34.363687 -118.952780 94 3369ft 97kts
22-Feb-18 10:30 34.360611 -118.920133 94 3368ft 97kts
22-Feb-18 10:31 34.357526 -118.887452 94 3368ft 98kts
22-Feb-18 10:32 34.349048 -118.855706 108 3364ft 99kts
22-Feb-18 10:33 34.341793 -118.824219 105 3364ft 98kts
22-Feb-18 10:34 34.333515 -118.792573 105 3363ft 99kts
22-Feb-18 10:35 34.325233 -118.760853 105 3362ft 98kts
22-Feb-18 10:36 34.316947 -118.729051 106 3341ft 101kts
22-Feb-18 10:37 34.308551 -118.697188 106 3400ft 94kts
22-Feb-18 10:38 34.300716 -118.667305 105 3467ft 94kts
22-Feb-18 10:39 34.292562 -118.636276 105 3467ft 97kts
22-Feb-18 10:40 34.284394 -118.605219 106 3482ft 97kts
22-Feb-18 10:41 34.276370 -118.574734 107 3509ft 96kts
22-Feb-18 10:42 34.268261 -118.543975 107 3507ft 95kts
22-Feb-18 10:43 34.260283 -118.513730 107 3506ft 94kts
22-Feb-18 10:44 34.252644 -118.484816 106 3502ft 83kts
22-Feb-18 10:45 34.245875 -118.459330 107 3503ft 78kts
22-Feb-18 10:46 34.233984 -118.437965 127 3459ft 81kts
22-Feb-18 10:47 34.221575 -118.415161 113 3304ft 80kts
22-Feb-18 10:48 34.219920 -118.388769 71 2758ft 65kts
22-Feb-18 10:49 34.227342 -118.372259 71 1861ft 67kts
22-Feb-18 10:50 34.212538 -118.360578 160 851ft 56kts
22-Feb-18 10:51 34.206141 -118.359710 240 781ft 0kts
22-Feb-18 10:52 34.206141 -118.359710 240 781ft 0kts
22-Feb-18 10:53 34.204284 -118.359419 167 781ft 13kts
22-Feb-18 10:54 34.200485 -118.358341 168 781ft 17kts
22-Feb-18 10:55 34.198938 -118.361380 270 781ft 13kts
22-Feb-18 10:56 34.199474 -118.364116 272 781ft 7kts
22-Feb-18 10:57 34.200527 -118.363864 88 781ft 6kts
22-Feb-18 10:58 34.200356 -118.363737 196 781ft 0kts
22-Feb-18 10:59 34.200356 -118.363737 196 781ft 0kts
22-Feb-18 11:00 34.200356 -118.363737 196 781ft 0kts
22-Feb-18 11:01 34.200356 -118.363737 196 781ft 0kts
22-Feb-18 11:02 34.200356 -118.363737 196 781ft 0kts
22-Feb-18 11:03 34.200356 -118.363737 196 781ft 0kts
22-Feb-18 11:04 34.200356 -118.363737 196 781ft 0kts
22-Feb-18 11:05 34.200356 -118.363737 196 781ft 0kts
22-Feb-18 11:06 34.200356 -118.363737 196 781ft 0kts

Navigation Log

Ident Type
Flight plan parsing failed, navigation log unavailable